createdAt,value
2017-06-25T00:00:06.483Z,1008.6
2017-06-25T00:01:16.103Z,1008.55
2017-06-25T00:02:25.893Z,1008.57
2017-06-25T00:03:35.525Z,1008.53
2017-06-25T00:04:45.464Z,1008.48
2017-06-25T00:05:55.689Z,1008.53
2017-06-25T00:07:05.337Z,1008.54
2017-06-25T00:08:15.740Z,1008.58
2017-06-25T00:09:25.376Z,1008.53
2017-06-25T00:10:35.000Z,1008.54
2017-06-25T00:11:44.651Z,1008.54
2017-06-25T00:12:54.904Z,1008.53
2017-06-25T00:14:04.907Z,1008.57
2017-06-25T00:15:15.153Z,1008.55
2017-06-25T00:16:25.403Z,1008.56
2017-06-25T00:17:35.628Z,1008.58
2017-06-25T00:18:45.265Z,1008.59
2017-06-25T00:19:55.347Z,1008.59
2017-06-25T00:21:04.970Z,1008.58
2017-06-25T00:22:14.899Z,1008.56
2017-06-25T00:23:24.835Z,1008.55
2017-06-25T00:24:34.767Z,1008.53
2017-06-25T00:25:44.842Z,1008.55
2017-06-25T00:26:53.852Z,1008.48
2017-06-25T00:28:03.773Z,1008.52
2017-06-25T00:29:14.023Z,1008.5
2017-06-25T00:30:23.660Z,1008.5
2017-06-25T00:31:33.128Z,1008.45
2017-06-25T00:32:43.069Z,1008.47
2017-06-25T00:33:53.375Z,1008.46
2017-06-25T00:35:03.316Z,1008.43
2017-06-25T00:36:13.905Z,1008.44
2017-06-25T00:37:24.296Z,1008.4
2017-06-25T00:38:34.540Z,1008.37
2017-06-25T00:39:44.486Z,1008.41
2017-06-25T00:40:54.423Z,1008.38
2017-06-25T00:42:04.667Z,1008.37
2017-06-25T00:43:14.773Z,1008.35
2017-06-25T00:44:25.025Z,1008.36
2017-06-25T00:45:35.276Z,1008.4
2017-06-25T00:46:45.204Z,1008.35
2017-06-25T00:47:55.429Z,1008.36
2017-06-25T00:49:05.060Z,1008.32
2017-06-25T00:50:14.971Z,1008.33
2017-06-25T00:51:25.579Z,1008.34
2017-06-25T00:52:35.207Z,1008.34
2017-06-25T00:53:44.516Z,1008.34
2017-06-25T00:54:54.142Z,1008.34
2017-06-25T00:56:04.104Z,1008.31
2017-06-25T00:57:14.039Z,1008.28
2017-06-25T00:58:24.308Z,1008.27
2017-06-25T00:59:34.240Z,1008.27
2017-06-25T01:00:44.336Z,1008.23
2017-06-25T01:01:53.652Z,1008.25
2017-06-25T01:03:03.896Z,1008.26
2017-06-25T01:04:13.508Z,1008.25
2017-06-25T01:05:23.124Z,1008.23
2017-06-25T01:06:32.888Z,1008.23
2017-06-25T01:07:43.114Z,1008.18
2017-06-25T01:08:53.355Z,1008.22
2017-06-25T01:10:02.961Z,1008.17
2017-06-25T01:11:12.586Z,1008.16
2017-06-25T01:12:22.518Z,1008.16
2017-06-25T01:13:32.445Z,1008.13
2017-06-25T01:14:42.688Z,1008.13
2017-06-25T01:15:52.317Z,1008.11
2017-06-25T01:17:02.284Z,1008.06
2017-06-25T01:18:12.581Z,1008.09
2017-06-25T01:19:22.813Z,1008.06
2017-06-25T01:20:32.738Z,1008.03
2017-06-25T01:21:42.673Z,1008.03
2017-06-25T01:22:52.308Z,1008.1
2017-06-25T01:24:02.539Z,1008.07
2017-06-25T01:25:11.843Z,1008.03
2017-06-25T01:26:21.767Z,1008.02
2017-06-25T01:27:32.006Z,1008.01
2017-06-25T01:28:41.932Z,1008.03
2017-06-25T01:29:52.033Z,1008.06
2017-06-25T01:31:01.331Z,1008.04
2017-06-25T01:32:11.274Z,1008.04
2017-06-25T01:33:21.539Z,1007.99
2017-06-25T01:34:31.790Z,1008.04
2017-06-25T01:35:41.714Z,1008.02
2017-06-25T01:36:51.957Z,1008.05
2017-06-25T01:38:02.187Z,1008.09
2017-06-25T01:39:12.418Z,1008.08
2017-06-25T01:40:22.053Z,1008.04
2017-06-25T01:41:32.589Z,1008.04
2017-06-25T01:42:41.593Z,1008.04
2017-06-25T01:43:51.510Z,1008
2017-06-25T01:45:01.746Z,1008.01
2017-06-25T01:46:11.381Z,1007.98
2017-06-25T01:47:20.843Z,1007.95
2017-06-25T01:48:30.771Z,1007.95
2017-06-25T01:49:40.687Z,1007.9
2017-06-25T01:50:50.612Z,1007.95
2017-06-25T01:52:00.545Z,1007.92
2017-06-25T01:53:09.596Z,1007.91
2017-06-25T01:54:18.909Z,1007.95
2017-06-25T01:55:29.145Z,1007.92
2017-06-25T01:56:39.378Z,1007.96
2017-06-25T01:57:48.728Z,1007.96
2017-06-25T01:58:58.351Z,1007.99
2017-06-25T02:00:07.971Z,1007.98
2017-06-25T02:01:17.887Z,1007.99
2017-06-25T02:02:27.817Z,1008.02
2017-06-25T02:03:37.755Z,1008.01
2017-06-25T02:04:47.692Z,1008
2017-06-25T02:05:57.623Z,1008.03
2017-06-25T02:07:07.255Z,1007.97
2017-06-25T02:08:17.492Z,1007.92
2017-06-25T02:09:27.123Z,1008.03
2017-06-25T02:10:37.231Z,1007.9
2017-06-25T02:11:47.456Z,1007.89
2017-06-25T02:12:57.703Z,1007.91
2017-06-25T02:14:07.644Z,1007.87
2017-06-25T02:15:17.605Z,1007.94
2017-06-25T02:16:27.551Z,1007.95
2017-06-25T02:17:37.793Z,1007.95
2017-06-25T02:18:46.796Z,1007.93
2017-06-25T02:19:56.727Z,1007.95
2017-06-25T02:21:06.382Z,1007.98
2017-06-25T02:22:16.977Z,1007.96
2017-06-25T02:23:26.613Z,1007.93
2017-06-25T02:24:36.548Z,1007.99
2017-06-25T02:25:46.471Z,1007.96
2017-06-25T02:26:56.434Z,1007.97
2017-06-25T02:28:06.845Z,1007.99
2017-06-25T02:29:16.775Z,1007.97
2017-06-25T02:30:26.406Z,1007.97
2017-06-25T02:31:35.726Z,1007.92
2017-06-25T02:32:45.675Z,1007.95
2017-06-25T02:33:55.618Z,1007.95
2017-06-25T02:35:05.859Z,1007.95
2017-06-25T02:36:16.116Z,1007.99
2017-06-25T02:37:25.444Z,1007.98
2017-06-25T02:38:35.696Z,1007.98
2017-06-25T02:39:45.985Z,1007.95
2017-06-25T02:40:56.226Z,1007.97
2017-06-25T02:42:06.162Z,1007.99
2017-06-25T02:43:16.407Z,1007.94
2017-06-25T02:44:26.653Z,1007.94
2017-06-25T02:45:36.946Z,1007.94
2017-06-25T02:46:46.916Z,1007.9
2017-06-25T02:47:56.841Z,1007.93
2017-06-25T02:49:07.102Z,1007.94
2017-06-25T02:50:17.043Z,1007.95
2017-06-25T02:51:26.755Z,1007.93
2017-06-25T02:52:36.688Z,1007.94
2017-06-25T02:53:46.009Z,1007.92
2017-06-25T02:54:56.247Z,1007.93
2017-06-25T02:56:05.885Z,1007.92
2017-06-25T02:57:15.195Z,1007.93
2017-06-25T02:58:24.823Z,1007.95
2017-06-25T02:59:34.140Z,1007.88
2017-06-25T03:00:44.387Z,1007.91
2017-06-25T03:01:54.027Z,1007.89
2017-06-25T03:03:04.099Z,1007.85
2017-06-25T03:04:14.045Z,1007.88
2017-06-25T03:05:23.672Z,1007.81
2017-06-25T03:06:33.958Z,1007.79
2017-06-25T03:07:43.875Z,1007.81
2017-06-25T03:08:54.110Z,1007.84
2017-06-25T03:10:03.740Z,1007.84
2017-06-25T03:11:13.688Z,1007.84
2017-06-25T03:12:23.615Z,1007.86
2017-06-25T03:13:33.839Z,1007.87
2017-06-25T03:14:44.226Z,1007.81
2017-06-25T03:15:54.473Z,1007.77
2017-06-25T03:17:04.414Z,1007.72
2017-06-25T03:18:14.338Z,1007.7
2017-06-25T03:19:24.563Z,1007.7
2017-06-25T03:20:34.808Z,1007.72
2017-06-25T03:21:44.733Z,1007.71
2017-06-25T03:22:55.033Z,1007.78
2017-06-25T03:24:05.263Z,1007.8
2017-06-25T03:25:15.525Z,1007.77
2017-06-25T03:26:25.941Z,1007.72
2017-06-25T03:27:36.174Z,1007.66
2017-06-25T03:28:45.799Z,1007.68
2017-06-25T03:29:56.072Z,1007.73
2017-06-25T03:31:05.704Z,1007.69
2017-06-25T03:32:15.436Z,1007.72
2017-06-25T03:33:25.384Z,1007.78
2017-06-25T03:34:35.619Z,1007.75
2017-06-25T03:35:45.242Z,1007.76
2017-06-25T03:36:55.178Z,1007.77
2017-06-25T03:38:05.171Z,1007.66
2017-06-25T03:39:15.111Z,1007.68
2017-06-25T03:40:25.034Z,1007.65
2017-06-25T03:41:35.274Z,1007.68
2017-06-25T03:42:45.531Z,1007.67
2017-06-25T03:43:55.461Z,1007.64
2017-06-25T03:45:05.080Z,1007.65
2017-06-25T03:46:14.453Z,1007.6
2017-06-25T03:47:24.399Z,1007.56
2017-06-25T03:48:34.626Z,1007.59
2017-06-25T03:49:44.090Z,1007.55
2017-06-25T03:50:53.710Z,1007.54
2017-06-25T03:52:03.646Z,1007.56
2017-06-25T03:53:13.874Z,1007.56
2017-06-25T03:54:23.489Z,1007.58
2017-06-25T03:55:33.631Z,1007.63
2017-06-25T03:56:43.566Z,1007.64
2017-06-25T03:57:53.215Z,1007.58
2017-06-25T03:59:03.465Z,1007.62
2017-06-25T04:00:13.387Z,1007.61
2017-06-25T04:01:23.795Z,1007.6
2017-06-25T04:02:34.026Z,1007.61
2017-06-25T04:03:44.256Z,1007.65
2017-06-25T04:04:54.204Z,1007.56
2017-06-25T04:06:03.212Z,1007.62
2017-06-25T04:07:13.196Z,1007.61
2017-06-25T04:08:22.827Z,1007.61
2017-06-25T04:09:33.051Z,1007.61
2017-06-25T04:10:42.663Z,1007.61
2017-06-25T04:11:52.634Z,1007.66
2017-06-25T04:13:02.856Z,1007.68
2017-06-25T04:14:12.789Z,1007.62
2017-06-25T04:15:23.031Z,1007.6
2017-06-25T04:16:33.288Z,1007.62
2017-06-25T04:17:43.532Z,1007.59
2017-06-25T04:18:53.473Z,1007.64
2017-06-25T04:20:03.708Z,1007.66
2017-06-25T04:21:13.324Z,1007.64
2017-06-25T04:22:23.279Z,1007.63
2017-06-25T04:23:33.520Z,1007.63
2017-06-25T04:24:43.875Z,1007.67
2017-06-25T04:25:53.788Z,1007.62
2017-06-25T04:27:03.131Z,1007.66
2017-06-25T04:28:13.054Z,1007.66
2017-06-25T04:29:23.013Z,1007.67
2017-06-25T04:30:33.048Z,1007.63
2017-06-25T04:31:42.978Z,1007.64
2017-06-25T04:32:53.234Z,1007.66
2017-06-25T04:34:03.483Z,1007.64
2017-06-25T04:35:13.410Z,1007.63
2017-06-25T04:36:23.047Z,1007.63
2017-06-25T04:37:32.995Z,1007.65
2017-06-25T04:38:42.939Z,1007.62
2017-06-25T04:39:52.591Z,1007.62
2017-06-25T04:41:02.517Z,1007.59
2017-06-25T04:42:12.126Z,1007.59
2017-06-25T04:43:22.072Z,1007.63
2017-06-25T04:44:31.390Z,1007.61
2017-06-25T04:45:41.335Z,1007.62
2017-06-25T04:46:50.669Z,1007.56
2017-06-25T04:48:00.911Z,1007.61
2017-06-25T04:49:10.541Z,1007.62
2017-06-25T04:50:20.788Z,1007.56
2017-06-25T04:51:31.022Z,1007.62
2017-06-25T04:52:40.943Z,1007.61
2017-06-25T04:53:51.282Z,1007.57
2017-06-25T04:55:01.213Z,1007.62
2017-06-25T04:56:11.446Z,1007.61
2017-06-25T04:57:21.408Z,1007.61
2017-06-25T04:58:31.364Z,1007.61
2017-06-25T04:59:41.049Z,1007.57
2017-06-25T05:00:51.009Z,1007.68
2017-06-25T05:02:01.257Z,1007.64
2017-06-25T05:03:10.562Z,1007.68
2017-06-25T05:04:20.817Z,1007.71
2017-06-25T05:05:30.312Z,1007.7
2017-06-25T05:06:40.239Z,1007.67
2017-06-25T05:07:50.158Z,1007.62
2017-06-25T05:09:00.098Z,1007.6
2017-06-25T05:10:10.032Z,1007.64
2017-06-25T05:11:19.793Z,1007.62
2017-06-25T05:12:29.726Z,1007.66
2017-06-25T05:13:39.335Z,1007.66
2017-06-25T05:14:49.562Z,1007.64
2017-06-25T05:15:59.854Z,1007.65
2017-06-25T05:17:09.219Z,1007.64
2017-06-25T05:18:19.150Z,1007.61
2017-06-25T05:19:29.380Z,1007.68
2017-06-25T05:20:39.311Z,1007.64
2017-06-25T05:21:49.549Z,1007.63
2017-06-25T05:22:59.329Z,1007.64
2017-06-25T05:24:08.958Z,1007.58
2017-06-25T05:25:18.905Z,1007.55
2017-06-25T05:26:28.865Z,1007.56
2017-06-25T05:27:38.183Z,1007.59
2017-06-25T05:28:48.571Z,1007.59
2017-06-25T05:29:58.815Z,1007.59
2017-06-25T05:31:08.742Z,1007.65
2017-06-25T05:32:18.970Z,1007.62
2017-06-25T05:33:28.592Z,1007.65
2017-06-25T05:34:38.515Z,1007.61
2017-06-25T05:35:48.135Z,1007.6
2017-06-25T05:36:57.759Z,1007.65
2017-06-25T05:38:08.003Z,1007.59
2017-06-25T05:39:17.309Z,1007.66
2017-06-25T05:40:27.399Z,1007.67
2017-06-25T05:41:36.715Z,1007.68
2017-06-25T05:42:46.030Z,1007.65
2017-06-25T05:43:55.961Z,1007.63
2017-06-25T05:45:05.880Z,1007.61
2017-06-25T05:46:16.107Z,1007.65
2017-06-25T05:47:26.117Z,1007.61
2017-06-25T05:48:35.802Z,1007.68
2017-06-25T05:49:46.049Z,1007.59
2017-06-25T05:50:55.968Z,1007.58
2017-06-25T05:52:06.323Z,1007.55
2017-06-25T05:53:16.278Z,1007.52
2017-06-25T05:54:26.194Z,1007.52
2017-06-25T05:55:36.425Z,1007.5
2017-06-25T05:56:46.053Z,1007.5
2017-06-25T05:57:56.055Z,1007.47
2017-06-25T05:59:06.032Z,1007.46
2017-06-25T06:00:16.280Z,1007.47
2017-06-25T06:01:26.198Z,1007.5
2017-06-25T06:02:36.120Z,1007.49
2017-06-25T06:03:45.746Z,1007.5
2017-06-25T06:04:55.365Z,1007.47
2017-06-25T06:06:04.985Z,1007.51
2017-06-25T06:07:15.225Z,1007.49
2017-06-25T06:08:24.849Z,1007.52
2017-06-25T06:09:34.930Z,1007.5
2017-06-25T06:10:44.841Z,1007.45
2017-06-25T06:11:55.066Z,1007.44
2017-06-25T06:13:05.009Z,1007.45
2017-06-25T06:14:14.622Z,1007.37
2017-06-25T06:15:24.388Z,1007.41
2017-06-25T06:16:34.312Z,1007.44
2017-06-25T06:17:43.929Z,1007.42
2017-06-25T06:18:54.178Z,1007.42
2017-06-25T06:20:04.123Z,1007.38
2017-06-25T06:21:14.725Z,1007.46
2017-06-25T06:22:24.643Z,1007.42
2017-06-25T06:23:34.560Z,1007.45
2017-06-25T06:24:44.490Z,1007.35
2017-06-25T06:25:54.733Z,1007.38
2017-06-25T06:27:05.335Z,1007.38
2017-06-25T06:28:15.269Z,1007.41
2017-06-25T06:29:25.185Z,1007.34
2017-06-25T06:30:35.108Z,1007.34
2017-06-25T06:31:45.348Z,1007.31
2017-06-25T06:32:55.266Z,1007.35
2017-06-25T06:34:05.502Z,1007.39
2017-06-25T06:35:15.431Z,1007.37
2017-06-25T06:36:24.759Z,1007.3
2017-06-25T06:37:34.989Z,1007.36
2017-06-25T06:38:45.361Z,1007.39
2017-06-25T06:39:55.288Z,1007.43
2017-06-25T06:41:04.900Z,1007.46
2017-06-25T06:42:14.828Z,1007.51
2017-06-25T06:43:24.452Z,1007.49
2017-06-25T06:44:34.219Z,1007.5
2017-06-25T06:45:44.134Z,1007.54
2017-06-25T06:46:54.061Z,1007.52
2017-06-25T06:48:03.705Z,1007.45
2017-06-25T06:49:13.642Z,1007.44
2017-06-25T06:50:23.378Z,1007.4
2017-06-25T06:51:33.471Z,1007.47
2017-06-25T06:52:43.076Z,1007.48
2017-06-25T06:53:52.686Z,1007.46
2017-06-25T06:55:02.910Z,1007.49
2017-06-25T06:56:12.978Z,1007.43
2017-06-25T06:57:22.890Z,1007.42
2017-06-25T06:58:33.116Z,1007.38
2017-06-25T06:59:43.038Z,1007.37
2017-06-25T07:00:53.352Z,1007.37
2017-06-25T07:02:03.738Z,1007.39
2017-06-25T07:03:13.667Z,1007.32
2017-06-25T07:04:23.899Z,1007.38
2017-06-25T07:05:33.525Z,1007.4
2017-06-25T07:06:43.436Z,1007.38
2017-06-25T07:07:53.125Z,1007.35
2017-06-25T07:09:03.037Z,1007.36
2017-06-25T07:10:12.640Z,1007.37
2017-06-25T07:11:22.239Z,1007.38
2017-06-25T07:12:32.581Z,1007.38
2017-06-25T07:13:42.538Z,1007.35
2017-06-25T07:14:52.747Z,1007.38
2017-06-25T07:16:02.044Z,1007.38
2017-06-25T07:17:11.970Z,1007.37
2017-06-25T07:18:22.309Z,1007.42
2017-06-25T07:19:32.318Z,1007.44
2017-06-25T07:20:42.609Z,1007.44
2017-06-25T07:21:52.380Z,1007.54
2017-06-25T07:23:01.708Z,1007.5
2017-06-25T07:24:11.732Z,1007.53
2017-06-25T07:25:22.487Z,1007.57
2017-06-25T07:26:32.447Z,1007.59
2017-06-25T07:27:42.334Z,1007.63
2017-06-25T07:28:52.866Z,1007.72
2017-06-25T07:30:02.792Z,1007.67
2017-06-25T07:31:12.569Z,1007.64
2017-06-25T07:32:23.760Z,1007.67
2017-06-25T07:33:34.104Z,1007.62
2017-06-25T07:34:44.080Z,1007.65
2017-06-25T07:35:54.512Z,1007.58
2017-06-25T07:37:05.649Z,1007.6
2017-06-25T07:38:15.970Z,1007.52
2017-06-25T07:39:26.194Z,1007.48
2017-06-25T07:40:36.113Z,1007.48
2017-06-25T07:41:46.025Z,1007.45
2017-06-25T07:42:56.208Z,1007.47
2017-06-25T07:44:06.419Z,1007.51
2017-06-25T07:45:16.642Z,1007.54
2017-06-25T07:46:26.896Z,1007.58
2017-06-25T07:47:36.673Z,1007.6
2017-06-25T07:48:46.326Z,1007.65
2017-06-25T07:49:56.552Z,1007.66
2017-06-25T07:51:06.161Z,1007.68
2017-06-25T07:52:16.078Z,1007.68
2017-06-25T07:53:26.014Z,1007.67
2017-06-25T07:54:35.631Z,1007.73
2017-06-25T07:55:45.546Z,1007.66
2017-06-25T07:56:55.463Z,1007.68
2017-06-25T07:58:05.087Z,1007.7
2017-06-25T07:59:15.311Z,1007.78
2017-06-25T08:00:25.521Z,1007.76
2017-06-25T08:01:35.449Z,1007.78
2017-06-25T08:02:45.064Z,1007.68
2017-06-25T08:03:54.978Z,1007.75
2017-06-25T08:05:05.037Z,1007.76
2017-06-25T08:06:15.263Z,1007.81
2017-06-25T08:07:24.561Z,1007.82
2017-06-25T08:08:33.561Z,1007.82
2017-06-25T08:09:43.796Z,1007.87
2017-06-25T08:10:54.086Z,1007.84
2017-06-25T08:12:04.685Z,1007.91
2017-06-25T08:13:14.905Z,1007.87
2017-06-25T08:14:24.520Z,1007.84
2017-06-25T08:15:34.143Z,1007.89
2017-06-25T08:16:43.908Z,1007.91
2017-06-25T08:17:53.580Z,1007.89
2017-06-25T08:19:03.496Z,1007.91
2017-06-25T08:20:12.811Z,1007.9
2017-06-25T08:21:23.053Z,1007.92
2017-06-25T08:22:33.145Z,1007.96
2017-06-25T08:23:43.059Z,1007.93
2017-06-25T08:24:52.973Z,1007.88
2017-06-25T08:26:02.572Z,1007.92
2017-06-25T08:27:12.490Z,1007.93
2017-06-25T08:28:22.192Z,1008.03
2017-06-25T08:29:32.114Z,1007.92
2017-06-25T08:30:41.412Z,1007.97
2017-06-25T08:31:51.352Z,1008
2017-06-25T08:33:01.637Z,1008.02
2017-06-25T08:34:11.903Z,1008.03
2017-06-25T08:35:21.198Z,1007.95
2017-06-25T08:36:31.116Z,1007.96
2017-06-25T08:37:40.722Z,1007.99
2017-06-25T08:38:50.653Z,1007.9
2017-06-25T08:40:01.050Z,1007.99
2017-06-25T08:41:10.991Z,1008
2017-06-25T08:42:21.246Z,1007.96
2017-06-25T08:43:31.251Z,1007.94
2017-06-25T08:44:41.514Z,1007.98
2017-06-25T08:45:51.477Z,1008.02
2017-06-25T08:47:01.385Z,1008
2017-06-25T08:48:11.613Z,1008
2017-06-25T08:49:22.219Z,1007.96
2017-06-25T08:50:31.865Z,1007.94
2017-06-25T08:51:42.084Z,1007.92
2017-06-25T08:52:51.690Z,1007.89
2017-06-25T08:54:01.309Z,1007.89
2017-06-25T08:55:11.917Z,1007.92
2017-06-25T08:56:21.837Z,1007.91
2017-06-25T08:57:31.927Z,1007.9
2017-06-25T08:58:41.839Z,1007.91
2017-06-25T08:59:52.086Z,1007.94
2017-06-25T09:01:02.029Z,1007.94
2017-06-25T09:02:11.675Z,1007.95
2017-06-25T09:03:21.463Z,1007.97
2017-06-25T09:04:31.092Z,1007.94
2017-06-25T09:05:41.315Z,1007.95
2017-06-25T09:06:50.638Z,1007.94
2017-06-25T09:08:00.634Z,1007.95
2017-06-25T09:09:10.404Z,1007.91
2017-06-25T09:10:19.715Z,1007.92
2017-06-25T09:11:29.942Z,1007.84
2017-06-25T09:12:39.867Z,1007.92
2017-06-25T09:13:50.085Z,1007.91
2017-06-25T09:15:00.062Z,1007.91
2017-06-25T09:16:10.309Z,1007.93
2017-06-25T09:17:19.622Z,1008.01
2017-06-25T09:18:30.582Z,1007.95
2017-06-25T09:19:40.818Z,1007.93
2017-06-25T09:20:51.547Z,1007.87
2017-06-25T09:22:02.079Z,1007.9
2017-06-25T09:23:12.124Z,1007.98
2017-06-25T09:24:22.040Z,1008.01
2017-06-25T09:25:31.653Z,1008.01
2017-06-25T09:26:41.409Z,1008.03
2017-06-25T09:27:52.024Z,1008.1
2017-06-25T09:29:01.684Z,1008.15
2017-06-25T09:30:11.596Z,1008.17
2017-06-25T09:31:20.904Z,1008.2
2017-06-25T09:32:30.972Z,1008.21
2017-06-25T09:33:40.881Z,1008.17
2017-06-25T09:34:50.788Z,1008.2
2017-06-25T09:36:01.019Z,1008.26
2017-06-25T09:37:10.641Z,1008.26
2017-06-25T09:38:20.554Z,1008.3
2017-06-25T09:39:30.328Z,1008.34
2017-06-25T09:40:40.682Z,1008.23
2017-06-25T09:41:50.618Z,1008.24
2017-06-25T09:43:00.138Z,1008.22
2017-06-25T09:44:10.378Z,1008.17
2017-06-25T09:45:20.609Z,1008.19
2017-06-25T09:46:31.111Z,1008.26
2017-06-25T09:47:41.348Z,1008.22
2017-06-25T09:48:51.608Z,1008.19
2017-06-25T09:50:01.847Z,1008.17
2017-06-25T09:51:12.341Z,1008.15
2017-06-25T09:52:21.644Z,1008.14
2017-06-25T09:53:31.247Z,1008.11
2017-06-25T09:54:41.576Z,1008.07
2017-06-25T09:55:51.493Z,1008.04
2017-06-25T09:57:01.718Z,1007.98
2017-06-25T09:58:11.956Z,1008.1
2017-06-25T09:59:22.167Z,1008.07
2017-06-25T10:00:32.177Z,1008.05
2017-06-25T10:01:41.795Z,1008.04
2017-06-25T10:02:51.095Z,1008.03
2017-06-25T10:04:01.831Z,1008.09
2017-06-25T10:05:11.517Z,1008.1
2017-06-25T10:06:21.747Z,1008.08
2017-06-25T10:07:31.358Z,1008.1
2017-06-25T10:08:40.960Z,1008.12
2017-06-25T10:09:50.879Z,1008.14
2017-06-25T10:11:00.489Z,1008.13
2017-06-25T10:12:10.422Z,1008.1
2017-06-25T10:13:20.646Z,1008.13
2017-06-25T10:14:30.576Z,1008.07
2017-06-25T10:15:40.494Z,1008.08
2017-06-25T10:16:50.410Z,1008.08
2017-06-25T10:18:00.624Z,1008.13
2017-06-25T10:19:10.224Z,1008.15
2017-06-25T10:20:20.133Z,1008.18
2017-06-25T10:21:30.050Z,1008.15
2017-06-25T10:22:40.286Z,1008.22
2017-06-25T10:23:50.201Z,1008.3
2017-06-25T10:25:00.417Z,1008.29
2017-06-25T10:26:10.046Z,1008.41
2017-06-25T10:27:20.275Z,1008.45
2017-06-25T10:28:30.499Z,1008.41
2017-06-25T10:29:40.412Z,1008.37
2017-06-25T10:30:50.331Z,1008.42
2017-06-25T10:31:59.927Z,1008.48
2017-06-25T10:33:09.908Z,1008.45
2017-06-25T10:34:19.212Z,1008.49
2017-06-25T10:35:29.135Z,1008.54
2017-06-25T10:36:39.055Z,1008.48
2017-06-25T10:37:48.687Z,1008.46
2017-06-25T10:38:58.920Z,1008.5
2017-06-25T10:40:08.831Z,1008.45
2017-06-25T10:41:18.751Z,1008.46
2017-06-25T10:42:28.069Z,1008.4
2017-06-25T10:43:37.997Z,1008.44
2017-06-25T10:44:47.922Z,1008.48
2017-06-25T10:45:58.469Z,1008.44
2017-06-25T10:47:08.409Z,1008.51
2017-06-25T10:48:18.659Z,1008.49
2017-06-25T10:49:27.952Z,1008.48
2017-06-25T10:50:38.186Z,1008.47
2017-06-25T10:51:48.105Z,1008.4
2017-06-25T10:52:58.022Z,1008.48
2017-06-25T10:54:07.950Z,1008.46
2017-06-25T10:55:18.175Z,1008.51
2017-06-25T10:56:28.393Z,1008.44
2017-06-25T10:57:38.643Z,1008.47
2017-06-25T10:58:48.241Z,1008.48
2017-06-25T10:59:58.147Z,1008.46
2017-06-25T11:01:08.057Z,1008.51
2017-06-25T11:02:17.966Z,1008.54
2017-06-25T11:03:27.870Z,1008.47
2017-06-25T11:04:37.778Z,1008.44
2017-06-25T11:05:47.690Z,1008.39
2017-06-25T11:06:57.609Z,1008.42
2017-06-25T11:08:07.823Z,1008.43
2017-06-25T11:09:17.737Z,1008.47
2017-06-25T11:10:27.955Z,1008.38
2017-06-25T11:11:37.874Z,1008.41
2017-06-25T11:12:48.098Z,1008.41
2017-06-25T11:13:58.348Z,1008.4
2017-06-25T11:15:08.274Z,1008.4
2017-06-25T11:16:18.204Z,1008.37
2017-06-25T11:17:28.126Z,1008.41
2017-06-25T11:18:37.729Z,1008.36
2017-06-25T11:19:47.335Z,1008.41
2017-06-25T11:20:57.246Z,1008.4
2017-06-25T11:22:07.494Z,1008.45
2017-06-25T11:23:17.414Z,1008.47
2017-06-25T11:24:27.013Z,1008.47
2017-06-25T11:25:37.304Z,1008.43
2017-06-25T11:26:46.931Z,1008.46
2017-06-25T11:27:56.233Z,1008.46
2017-06-25T11:29:05.830Z,1008.44
2017-06-25T11:30:15.735Z,1008.47
2017-06-25T11:31:25.353Z,1008.44
2017-06-25T11:32:35.564Z,1008.41
2017-06-25T11:33:45.159Z,1008.51
2017-06-25T11:34:54.149Z,1008.46
2017-06-25T11:36:04.074Z,1008.46
2017-06-25T11:37:14.291Z,1008.47
2017-06-25T11:38:24.210Z,1008.45
2017-06-25T11:39:33.821Z,1008.46
2017-06-25T11:40:43.735Z,1008.35
2017-06-25T11:41:52.724Z,1008.33
2017-06-25T11:43:02.635Z,1008.49
2017-06-25T11:44:12.846Z,1008.42
2017-06-25T11:45:22.454Z,1008.36
2017-06-25T11:46:32.365Z,1008.38
2017-06-25T11:47:41.984Z,1008.41
2017-06-25T11:48:51.293Z,1008.43
2017-06-25T11:50:00.902Z,1008.43
2017-06-25T11:51:11.122Z,1008.36
2017-06-25T11:52:20.721Z,1008.35
2017-06-25T11:53:30.951Z,1008.33
2017-06-25T11:54:40.560Z,1008.32
2017-06-25T11:55:49.850Z,1008.33
2017-06-25T11:56:58.838Z,1008.4
2017-06-25T11:58:08.758Z,1008.32
2017-06-25T11:59:18.670Z,1008.35
2017-06-25T12:00:27.660Z,1008.34
2017-06-25T12:01:37.269Z,1008.39
2017-06-25T12:02:46.884Z,1008.36
2017-06-25T12:03:56.485Z,1008.32
2017-06-25T12:05:05.780Z,1008.3
2017-06-25T12:06:15.389Z,1008.25
2017-06-25T12:07:24.999Z,1008.24
2017-06-25T12:08:34.301Z,1008.41
2017-06-25T12:09:44.223Z,1008.31
2017-06-25T12:10:54.159Z,1008.29
2017-06-25T12:12:03.828Z,1008.3
2017-06-25T12:13:13.140Z,1008.43
2017-06-25T12:14:23.052Z,1008.42
2017-06-25T12:15:32.987Z,1008.38
2017-06-25T12:16:42.896Z,1008.32
2017-06-25T12:17:52.823Z,1008.34
2017-06-25T12:19:03.085Z,1008.37
2017-06-25T12:20:12.727Z,1008.33
2017-06-25T12:21:22.635Z,1008.35
2017-06-25T12:22:32.870Z,1008.42
2017-06-25T12:23:42.770Z,1008.44
2017-06-25T12:24:52.382Z,1008.37
2017-06-25T12:26:01.679Z,1008.41
2017-06-25T12:27:10.987Z,1008.37
2017-06-25T12:28:20.589Z,1008.33
2017-06-25T12:29:29.576Z,1008.38
2017-06-25T12:30:39.506Z,1008.38
2017-06-25T12:31:48.802Z,1008.39
2017-06-25T12:32:59.030Z,1008.42
2017-06-25T12:34:08.936Z,1008.34
2017-06-25T12:35:18.838Z,1008.41
2017-06-25T12:36:28.465Z,1008.38
2017-06-25T12:37:38.713Z,1008.33
2017-06-25T12:38:48.967Z,1008.29
2017-06-25T12:39:58.660Z,1008.27
2017-06-25T12:41:08.900Z,1008.27
2017-06-25T12:42:18.814Z,1008.27
2017-06-25T12:43:28.723Z,1008.29
2017-06-25T12:44:38.327Z,1008.25
2017-06-25T12:45:47.319Z,1008.21
2017-06-25T12:46:57.539Z,1008.19
2017-06-25T12:48:07.149Z,1008.29
2017-06-25T12:49:17.057Z,1008.33
2017-06-25T12:50:26.973Z,1008.29
2017-06-25T12:51:37.190Z,1008.24
2017-06-25T12:52:47.401Z,1008.27
2017-06-25T12:53:57.615Z,1008.31
2017-06-25T12:55:07.215Z,1008.28
2017-06-25T12:56:16.818Z,1008.22
2017-06-25T12:57:27.022Z,1008.22
2017-06-25T12:58:36.933Z,1008.19
2017-06-25T12:59:46.856Z,1008.17
2017-06-25T13:00:56.456Z,1008.2
2017-06-25T13:02:06.897Z,1008.16
2017-06-25T13:03:16.201Z,1008.23
2017-06-25T13:04:26.412Z,1008.2
2017-06-25T13:05:36.023Z,1008.2
2017-06-25T13:06:46.097Z,1008.2
2017-06-25T13:07:56.027Z,1008.22
2017-06-25T13:09:05.957Z,1008.21
2017-06-25T13:10:15.264Z,1008.21
2017-06-25T13:11:25.192Z,1008.19
2017-06-25T13:12:35.247Z,1008.29
2017-06-25T13:13:45.481Z,1008.22
2017-06-25T13:14:55.407Z,1008.22
2017-06-25T13:16:05.643Z,1008.19
2017-06-25T13:17:15.850Z,1008.2
2017-06-25T13:18:25.768Z,1008.22
2017-06-25T13:19:35.686Z,1008.22
2017-06-25T13:20:45.592Z,1008.22
2017-06-25T13:21:54.898Z,1008.21
2017-06-25T13:23:04.500Z,1008.23
2017-06-25T13:24:14.418Z,1008.25
2017-06-25T13:25:24.636Z,1008.22
2017-06-25T13:26:34.260Z,1008.17
2017-06-25T13:27:43.868Z,1008.18
2017-06-25T13:28:53.480Z,1008.22
2017-06-25T13:30:03.099Z,1008.25
2017-06-25T13:31:12.704Z,1008.2
2017-06-25T13:32:22.940Z,1008.24
2017-06-25T13:33:32.853Z,1008.23
2017-06-25T13:34:41.864Z,1008.17
2017-06-25T13:35:52.081Z,1008.2
2017-06-25T13:37:01.377Z,1008.19
2017-06-25T13:38:11.298Z,1008.29
2017-06-25T13:39:21.232Z,1008.21
2017-06-25T13:40:31.457Z,1008.21
2017-06-25T13:41:41.101Z,1008.28
2017-06-25T13:42:51.332Z,1008.23
2017-06-25T13:44:00.636Z,1008.27
2017-06-25T13:45:10.555Z,1008.26
2017-06-25T13:46:20.473Z,1008.27
2017-06-25T13:47:29.780Z,1008.21
2017-06-25T13:48:39.687Z,1008.24
2017-06-25T13:49:49.598Z,1008.28
2017-06-25T13:50:59.807Z,1008.3
2017-06-25T13:52:09.706Z,1008.34
2017-06-25T13:53:20.195Z,1008.38
2017-06-25T13:54:29.803Z,1008.48
2017-06-25T13:55:39.725Z,1008.38
2017-06-25T13:56:49.690Z,1008.36
2017-06-25T13:57:59.475Z,1008.33
2017-06-25T13:59:09.379Z,1008.3
2017-06-25T14:00:19.387Z,1008.4
2017-06-25T14:01:28.689Z,1008.39
2017-06-25T14:02:38.922Z,1008.46
2017-06-25T14:03:48.832Z,1008.42
2017-06-25T14:04:59.052Z,1008.4
2017-06-25T14:06:09.259Z,1008.36
2017-06-25T14:07:18.867Z,1008.49
2017-06-25T14:08:28.813Z,1008.46